sensor_id;sensor_type;location;lat;lon;timestamp;P1;durP1;ratioP1;P2;durP2;ratioP2
17441;SDS011;8838;50.144;8.176;2024-01-15T00:00:32;20.60;;;9.90;;
17441;SDS011;8838;50.144;8.176;2024-01-15T00:03:01;19.20;;;8.90;;
17441;SDS011;8838;50.144;8.176;2024-01-15T00:05:29;24.23;;;10.37;;
17441;SDS011;8838;50.144;8.176;2024-01-15T00:07:56;22.30;;;10.33;;
17441;SDS011;8838;50.144;8.176;2024-01-15T00:10:23;21.27;;;9.40;;
17441;SDS011;8838;50.144;8.176;2024-01-15T00:12:50;25.13;;;10.50;;
17441;SDS011;8838;50.144;8.176;2024-01-15T00:15:17;23.57;;;10.90;;
17441;SDS011;8838;50.144;8.176;2024-01-15T00:17:44;22.17;;;10.67;;
17441;SDS011;8838;50.144;8.176;2024-01-15T00:20:12;23.70;;;10.53;;
17441;SDS011;8838;50.144;8.176;2024-01-15T00:22:39;26.47;;;11.07;;
17441;SDS011;8838;50.144;8.176;2024-01-15T00:25:06;23.43;;;10.57;;
17441;SDS011;8838;50.144;8.176;2024-01-15T00:27:34;27.53;;;11.47;;
17441;SDS011;8838;50.144;8.176;2024-01-15T00:30:04;26.80;;;11.30;;
17441;SDS011;8838;50.144;8.176;2024-01-15T00:32:32;27.30;;;11.77;;
17441;SDS011;8838;50.144;8.176;2024-01-15T00:35:00;25.90;;;11.37;;
17441;SDS011;8838;50.144;8.176;2024-01-15T00:37:30;27.90;;;11.50;;
17441;SDS011;8838;50.144;8.176;2024-01-15T00:39:57;31.00;;;12.70;;
17441;SDS011;8838;50.144;8.176;2024-01-15T00:42:23;32.67;;;12.00;;
17441;SDS011;8838;50.144;8.176;2024-01-15T00:44:50;28.13;;;11.30;;
17441;SDS011;8838;50.144;8.176;2024-01-15T00:47:19;28.47;;;11.60;;
17441;SDS011;8838;50.144;8.176;2024-01-15T00:49:46;27.30;;;12.37;;
17441;SDS011;8838;50.144;8.176;2024-01-15T00:52:13;30.83;;;12.70;;
17441;SDS011;8838;50.144;8.176;2024-01-15T00:54:41;28.57;;;12.07;;
17441;SDS011;8838;50.144;8.176;2024-01-15T00:57:08;31.53;;;11.97;;
17441;SDS011;8838;50.144;8.176;2024-01-15T00:59:35;27.67;;;11.83;;
17441;SDS011;8838;50.144;8.176;2024-01-15T01:02:03;25.80;;;11.10;;
17441;SDS011;8838;50.144;8.176;2024-01-15T01:04:30;31.37;;;12.60;;
17441;SDS011;8838;50.144;8.176;2024-01-15T01:06:56;26.47;;;12.03;;
17441;SDS011;8838;50.144;8.176;2024-01-15T01:09:24;31.80;;;11.80;;
17441;SDS011;8838;50.144;8.176;2024-01-15T01:11:52;28.83;;;12.33;;
17441;SDS011;8838;50.144;8.176;2024-01-15T01:14:19;28.80;;;13.00;;
17441;SDS011;8838;50.144;8.176;2024-01-15T01:16:45;30.50;;;12.50;;
17441;SDS011;8838;50.144;8.176;2024-01-15T01:19:13;29.43;;;12.50;;
17441;SDS011;8838;50.144;8.176;2024-01-15T01:21:43;31.20;;;12.50;;
17441;SDS011;8838;50.144;8.176;2024-01-15T01:24:09;27.33;;;11.70;;
17441;SDS011;8838;50.144;8.176;2024-01-15T01:26:36;29.43;;;11.87;;
17441;SDS011;8838;50.144;8.176;2024-01-15T01:29:04;27.57;;;11.23;;
17441;SDS011;8838;50.144;8.176;2024-01-15T01:31:30;29.67;;;12.53;;
17441;SDS011;8838;50.144;8.176;2024-01-15T01:33:57;26.93;;;11.03;;
17441;SDS011;8838;50.144;8.176;2024-01-15T01:36:24;26.87;;;11.30;;
17441;SDS011;8838;50.144;8.176;2024-01-15T01:38:51;28.03;;;11.53;;
17441;SDS011;8838;50.144;8.176;2024-01-15T01:41:18;27.83;;;11.80;;
17441;SDS011;8838;50.144;8.176;2024-01-15T01:43:45;30.10;;;13.00;;
17441;SDS011;8838;50.144;8.176;2024-01-15T01:46:13;31.53;;;12.37;;
17441;SDS011;8838;50.144;8.176;2024-01-15T01:48:41;26.57;;;11.53;;
17441;SDS011;8838;50.144;8.176;2024-01-15T01:51:09;24.57;;;10.93;;
17441;SDS011;8838;50.144;8.176;2024-01-15T01:53:37;28.60;;;12.07;;
17441;SDS011;8838;50.144;8.176;2024-01-15T01:56:05;27.90;;;12.37;;
17441;SDS011;8838;50.144;8.176;2024-01-15T01:58:32;26.37;;;11.23;;
17441;SDS011;8838;50.144;8.176;2024-01-15T02:00:59;32.77;;;12.50;;
17441;SDS011;8838;50.144;8.176;2024-01-15T02:03:31;27.40;;;11.67;;
17441;SDS011;8838;50.144;8.176;2024-01-15T02:05:58;26.73;;;11.77;;
17441;SDS011;8838;50.144;8.176;2024-01-15T02:08:26;25.97;;;11.30;;
17441;SDS011;8838;50.144;8.176;2024-01-15T02:10:54;26.80;;;11.47;;
17441;SDS011;8838;50.144;8.176;2024-01-15T02:13:21;26.47;;;11.20;;
17441;SDS011;8838;50.144;8.176;2024-01-15T02:15:48;26.00;;;11.17;;
17441;SDS011;8838;50.144;8.176;2024-01-15T02:18:15;28.50;;;11.70;;
17441;SDS011;8838;50.144;8.176;2024-01-15T02:20:43;30.07;;;11.23;;
17441;SDS011;8838;50.144;8.176;2024-01-15T02:23:12;30.40;;;11.57;;
17441;SDS011;8838;50.144;8.176;2024-01-15T02:25:41;26.60;;;11.50;;
17441;SDS011;8838;50.144;8.176;2024-01-15T02:28:10;27.70;;;10.53;;
17441;SDS011;8838;50.144;8.176;2024-01-15T02:30:38;27.63;;;11.70;;
17441;SDS011;8838;50.144;8.176;2024-01-15T02:33:06;26.30;;;10.87;;
17441;SDS011;8838;50.144;8.176;2024-01-15T02:35:32;28.80;;;12.17;;
17441;SDS011;8838;50.144;8.176;2024-01-15T02:38:01;26.90;;;11.33;;
17441;SDS011;8838;50.144;8.176;2024-01-15T02:40:33;27.43;;;11.83;;
17441;SDS011;8838;50.144;8.176;2024-01-15T02:43:00;26.23;;;11.30;;
17441;SDS011;8838;50.144;8.176;2024-01-15T02:45:28;25.60;;;11.10;;
17441;SDS011;8838;50.144;8.176;2024-01-15T02:47:55;25.63;;;11.23;;
17441;SDS011;8838;50.144;8.176;2024-01-15T02:50:22;25.63;;;10.40;;
17441;SDS011;8838;50.144;8.176;2024-01-15T02:52:49;27.47;;;11.17;;
17441;SDS011;8838;50.144;8.176;2024-01-15T02:55:16;27.00;;;10.93;;
17441;SDS011;8838;50.144;8.176;2024-01-15T02:57:44;24.30;;;10.70;;
17441;SDS011;8838;50.144;8.176;2024-01-15T03:00:11;28.07;;;11.67;;
17441;SDS011;8838;50.144;8.176;2024-01-15T03:02:39;24.47;;;10.87;;
17441;SDS011;8838;50.144;8.176;2024-01-15T03:05:08;26.67;;;11.43;;
17441;SDS011;8838;50.144;8.176;2024-01-15T03:07:35;28.57;;;11.50;;
17441;SDS011;8838;50.144;8.176;2024-01-15T03:10:03;27.07;;;11.53;;
17441;SDS011;8838;50.144;8.176;2024-01-15T03:12:32;26.07;;;11.23;;
17441;SDS011;8838;50.144;8.176;2024-01-15T03:15:00;26.47;;;11.07;;
17441;SDS011;8838;50.144;8.176;2024-01-15T03:17:27;27.87;;;10.87;;
17441;SDS011;8838;50.144;8.176;2024-01-15T03:19:54;26.73;;;11.47;;
17441;SDS011;8838;50.144;8.176;2024-01-15T03:22:21;27.83;;;10.83;;
17441;SDS011;8838;50.144;8.176;2024-01-15T03:24:48;28.43;;;11.23;;
17441;SDS011;8838;50.144;8.176;2024-01-15T03:27:15;27.53;;;11.93;;
17441;SDS011;8838;50.144;8.176;2024-01-15T03:29:42;26.13;;;11.37;;
17441;SDS011;8838;50.144;8.176;2024-01-15T03:32:11;26.93;;;11.43;;
17441;SDS011;8838;50.144;8.176;2024-01-15T03:34:37;34.27;;;13.10;;
17441;SDS011;8838;50.144;8.176;2024-01-15T03:37:05;26.70;;;11.10;;
17441;SDS011;8838;50.144;8.176;2024-01-15T03:39:32;26.17;;;10.87;;
17441;SDS011;8838;50.144;8.176;2024-01-15T03:41:58;31.27;;;11.77;;
17441;SDS011;8838;50.144;8.176;2024-01-15T03:44:26;27.03;;;11.00;;
17441;SDS011;8838;50.144;8.176;2024-01-15T03:46:53;28.80;;;11.03;;
17441;SDS011;8838;50.144;8.176;2024-01-15T03:49:21;28.03;;;11.87;;
17441;SDS011;8838;50.144;8.176;2024-01-15T03:51:48;30.93;;;11.87;;
17441;SDS011;8838;50.144;8.176;2024-01-15T03:54:15;26.40;;;11.77;;
17441;SDS011;8838;50.144;8.176;2024-01-15T03:56:42;24.80;;;11.00;;
17441;SDS011;8838;50.144;8.176;2024-01-15T03:59:09;27.43;;;11.73;;
17441;SDS011;8838;50.144;8.176;2024-01-15T04:01:36;27.53;;;11.93;;
17441;SDS011;8838;50.144;8.176;2024-01-15T04:04:03;30.77;;;11.70;;
17441;SDS011;8838;50.144;8.176;2024-01-15T04:06:31;26.93;;;11.90;;
17441;SDS011;8838;50.144;8.176;2024-01-15T04:08:58;27.30;;;11.03;;
17441;SDS011;8838;50.144;8.176;2024-01-15T04:11:25;25.87;;;11.50;;
17441;SDS011;8838;50.144;8.176;2024-01-15T04:13:52;31.67;;;12.97;;
17441;SDS011;8838;50.144;8.176;2024-01-15T04:16:19;29.07;;;11.60;;
17441;SDS011;8838;50.144;8.176;2024-01-15T04:18:46;26.50;;;10.90;;
17441;SDS011;8838;50.144;8.176;2024-01-15T04:21:13;29.93;;;11.47;;
17441;SDS011;8838;50.144;8.176;2024-01-15T04:23:41;26.40;;;11.47;;
17441;SDS011;8838;50.144;8.176;2024-01-15T04:26:08;31.80;;;12.00;;
17441;SDS011;8838;50.144;8.176;2024-01-15T04:28:35;30.33;;;11.50;;
17441;SDS011;8838;50.144;8.176;2024-01-15T04:31:02;29.57;;;11.90;;
17441;SDS011;8838;50.144;8.176;2024-01-15T04:33:29;28.83;;;12.10;;
17441;SDS011;8838;50.144;8.176;2024-01-15T04:35:56;27.60;;;11.87;;
17441;SDS011;8838;50.144;8.176;2024-01-15T04:38:23;30.03;;;12.17;;
17441;SDS011;8838;50.144;8.176;2024-01-15T04:40:51;30.27;;;12.30;;
17441;SDS011;8838;50.144;8.176;2024-01-15T04:43:18;29.53;;;12.33;;
17441;SDS011;8838;50.144;8.176;2024-01-15T04:45:45;28.93;;;12.40;;
17441;SDS011;8838;50.144;8.176;2024-01-15T04:48:12;28.43;;;11.97;;
17441;SDS011;8838;50.144;8.176;2024-01-15T04:50:42;26.53;;;12.10;;
17441;SDS011;8838;50.144;8.176;2024-01-15T04:53:08;31.93;;;12.97;;
17441;SDS011;8838;50.144;8.176;2024-01-15T04:55:35;29.27;;;11.87;;
17441;SDS011;8838;50.144;8.176;2024-01-15T04:58:04;33.43;;;13.27;;
17441;SDS011;8838;50.144;8.176;2024-01-15T05:00:31;28.67;;;11.90;;
17441;SDS011;8838;50.144;8.176;2024-01-15T05:02:58;29.37;;;12.33;;
17441;SDS011;8838;50.144;8.176;2024-01-15T05:05:25;34.70;;;13.07;;
17441;SDS011;8838;50.144;8.176;2024-01-15T05:07:52;29.10;;;12.77;;
17441;SDS011;8838;50.144;8.176;2024-01-15T05:10:19;30.27;;;12.00;;
17441;SDS011;8838;50.144;8.176;2024-01-15T05:12:46;27.07;;;11.97;;
17441;SDS011;8838;50.144;8.176;2024-01-15T05:15:14;31.33;;;12.07;;
17441;SDS011;8838;50.144;8.176;2024-01-15T05:17:41;29.30;;;12.37;;
17441;SDS011;8838;50.144;8.176;2024-01-15T05:20:08;27.77;;;11.40;;
17441;SDS011;8838;50.144;8.176;2024-01-15T05:22:36;26.70;;;11.80;;
17441;SDS011;8838;50.144;8.176;2024-01-15T05:25:04;26.37;;;11.73;;
17441;SDS011;8838;50.144;8.176;2024-01-15T05:27:31;27.47;;;11.90;;
17441;SDS011;8838;50.144;8.176;2024-01-15T05:29:58;26.50;;;11.80;;
17441;SDS011;8838;50.144;8.176;2024-01-15T05:32:26;28.80;;;11.37;;
17441;SDS011;8838;50.144;8.176;2024-01-15T05:34:53;29.87;;;12.07;;
17441;SDS011;8838;50.144;8.176;2024-01-15T05:37:20;28.53;;;11.37;;
17441;SDS011;8838;50.144;8.176;2024-01-15T05:39:47;27.17;;;11.30;;
17441;SDS011;8838;50.144;8.176;2024-01-15T05:42:14;30.67;;;13.03;;
17441;SDS011;8838;50.144;8.176;2024-01-15T05:44:41;28.80;;;12.23;;
17441;SDS011;8838;50.144;8.176;2024-01-15T05:47:08;28.50;;;12.63;;
17441;SDS011;8838;50.144;8.176;2024-01-15T05:49:36;34.77;;;13.27;;
17441;SDS011;8838;50.144;8.176;2024-01-15T05:52:04;32.13;;;14.23;;
17441;SDS011;8838;50.144;8.176;2024-01-15T05:54:31;32.47;;;13.67;;
17441;SDS011;8838;50.144;8.176;2024-01-15T05:56:58;31.80;;;13.83;;
17441;SDS011;8838;50.144;8.176;2024-01-15T05:59:24;30.53;;;13.73;;
17441;SDS011;8838;50.144;8.176;2024-01-15T06:01:52;30.80;;;13.67;;
17441;SDS011;8838;50.144;8.176;2024-01-15T06:04:19;31.50;;;14.50;;
17441;SDS011;8838;50.144;8.176;2024-01-15T06:06:47;35.57;;;13.97;;
17441;SDS011;8838;50.144;8.176;2024-01-15T06:09:14;32.40;;;13.77;;
17441;SDS011;8838;50.144;8.176;2024-01-15T06:11:41;34.80;;;14.57;;
17441;SDS011;8838;50.144;8.176;2024-01-15T06:14:08;34.77;;;14.83;;
17441;SDS011;8838;50.144;8.176;2024-01-15T06:16:36;37.03;;;14.90;;
17441;SDS011;8838;50.144;8.176;2024-01-15T06:19:03;34.80;;;14.87;;
17441;SDS011;8838;50.144;8.176;2024-01-15T06:21:30;34.60;;;13.70;;
17441;SDS011;8838;50.144;8.176;2024-01-15T06:23:59;35.90;;;14.23;;
17441;SDS011;8838;50.144;8.176;2024-01-15T06:26:26;32.00;;;14.13;;
17441;SDS011;8838;50.144;8.176;2024-01-15T06:28:52;36.53;;;14.30;;
17441;SDS011;8838;50.144;8.176;2024-01-15T06:31:19;31.87;;;13.00;;
17441;SDS011;8838;50.144;8.176;2024-01-15T06:33:46;33.00;;;13.23;;
17441;SDS011;8838;50.144;8.176;2024-01-15T06:36:14;27.93;;;12.60;;
17441;SDS011;8838;50.144;8.176;2024-01-15T06:38:42;33.73;;;13.53;;
17441;SDS011;8838;50.144;8.176;2024-01-15T06:41:11;35.60;;;13.93;;
17441;SDS011;8838;50.144;8.176;2024-01-15T06:43:38;29.97;;;13.23;;
17441;SDS011;8838;50.144;8.176;2024-01-15T06:46:05;29.37;;;13.13;;
17441;SDS011;8838;50.144;8.176;2024-01-15T06:48:31;34.97;;;14.33;;
17441;SDS011;8838;50.144;8.176;2024-01-15T06:50:59;35.27;;;13.70;;
17441;SDS011;8838;50.144;8.176;2024-01-15T06:53:25;33.00;;;14.27;;
17441;SDS011;8838;50.144;8.176;2024-01-15T06:55:52;34.23;;;14.03;;
17441;SDS011;8838;50.144;8.176;2024-01-15T06:58:21;32.10;;;13.73;;
17441;SDS011;8838;50.144;8.176;2024-01-15T07:00:48;36.40;;;14.73;;
17441;SDS011;8838;50.144;8.176;2024-01-15T07:03:16;36.17;;;14.13;;
17441;SDS011;8838;50.144;8.176;2024-01-15T07:05:43;31.67;;;13.50;;
17441;SDS011;8838;50.144;8.176;2024-01-15T07:08:11;35.07;;;13.60;;
17441;SDS011;8838;50.144;8.176;2024-01-15T07:10:37;30.87;;;13.73;;
17441;SDS011;8838;50.144;8.176;2024-01-15T07:13:04;29.23;;;12.17;;
17441;SDS011;8838;50.144;8.176;2024-01-15T07:15:33;33.03;;;13.57;;
17441;SDS011;8838;50.144;8.176;2024-01-15T07:18:01;32.33;;;13.80;;
17441;SDS011;8838;50.144;8.176;2024-01-15T07:20:28;32.27;;;13.43;;
17441;SDS011;8838;50.144;8.176;2024-01-15T07:22:55;27.87;;;12.13;;
17441;SDS011;8838;50.144;8.176;2024-01-15T07:25:22;30.53;;;13.77;;
17441;SDS011;8838;50.144;8.176;2024-01-15T07:27:51;32.83;;;14.30;;
17441;SDS011;8838;50.144;8.176;2024-01-15T07:30:20;28.60;;;13.40;;
17441;SDS011;8838;50.144;8.176;2024-01-15T07:32:50;34.07;;;14.07;;
17441;SDS011;8838;50.144;8.176;2024-01-15T07:35:17;33.77;;;14.07;;
17441;SDS011;8838;50.144;8.176;2024-01-15T07:37:44;34.70;;;14.17;;
17441;SDS011;8838;50.144;8.176;2024-01-15T07:40:11;34.37;;;14.10;;
17441;SDS011;8838;50.144;8.176;2024-01-15T07:42:38;34.30;;;14.37;;
17441;SDS011;8838;50.144;8.176;2024-01-15T07:45:07;35.33;;;14.40;;
17441;SDS011;8838;50.144;8.176;2024-01-15T07:47:35;30.57;;;13.23;;
17441;SDS011;8838;50.144;8.176;2024-01-15T07:50:03;33.30;;;14.03;;
17441;SDS011;8838;50.144;8.176;2024-01-15T07:52:30;30.30;;;12.90;;
17441;SDS011;8838;50.144;8.176;2024-01-15T07:54:58;30.53;;;13.47;;
17441;SDS011;8838;50.144;8.176;2024-01-15T07:57:26;32.00;;;14.07;;
17441;SDS011;8838;50.144;8.176;2024-01-15T07:59:53;35.67;;;13.83;;
17441;SDS011;8838;50.144;8.176;2024-01-15T08:02:20;35.63;;;14.17;;
17441;SDS011;8838;50.144;8.176;2024-01-15T08:04:47;27.03;;;13.07;;
17441;SDS011;8838;50.144;8.176;2024-01-15T08:07:17;32.27;;;13.77;;
17441;SDS011;8838;50.144;8.176;2024-01-15T08:09:44;29.77;;;13.00;;
17441;SDS011;8838;50.144;8.176;2024-01-15T08:12:12;32.37;;;13.93;;
17441;SDS011;8838;50.144;8.176;2024-01-15T08:14:39;31.67;;;13.47;;
17441;SDS011;8838;50.144;8.176;2024-01-15T08:17:06;30.73;;;13.23;;
17441;SDS011;8838;50.144;8.176;2024-01-15T08:19:33;30.73;;;12.87;;
17441;SDS011;8838;50.144;8.176;2024-01-15T08:22:00;29.83;;;13.53;;
17441;SDS011;8838;50.144;8.176;2024-01-15T08:24:29;31.47;;;13.83;;
17441;SDS011;8838;50.144;8.176;2024-01-15T08:26:56;34.83;;;14.30;;
17441;SDS011;8838;50.144;8.176;2024-01-15T08:29:23;28.77;;;13.63;;
17441;SDS011;8838;50.144;8.176;2024-01-15T08:31:50;31.47;;;13.43;;
17441;SDS011;8838;50.144;8.176;2024-01-15T08:34:17;29.37;;;13.07;;
17441;SDS011;8838;50.144;8.176;2024-01-15T08:36:44;29.80;;;13.40;;
17441;SDS011;8838;50.144;8.176;2024-01-15T08:39:12;30.83;;;13.57;;
17441;SDS011;8838;50.144;8.176;2024-01-15T08:41:40;29.83;;;13.00;;
17441;SDS011;8838;50.144;8.176;2024-01-15T08:44:07;32.00;;;14.07;;
17441;SDS011;8838;50.144;8.176;2024-01-15T08:46:34;28.57;;;13.50;;
17441;SDS011;8838;50.144;8.176;2024-01-15T08:49:01;30.33;;;13.87;;
17441;SDS011;8838;50.144;8.176;2024-01-15T08:51:29;31.73;;;14.10;;
17441;SDS011;8838;50.144;8.176;2024-01-15T08:53:56;28.50;;;13.43;;
17441;SDS011;8838;50.144;8.176;2024-01-15T08:56:24;29.97;;;13.07;;
17441;SDS011;8838;50.144;8.176;2024-01-15T08:58:53;27.60;;;12.70;;
17441;SDS011;8838;50.144;8.176;2024-01-15T09:01:20;29.47;;;13.23;;
17441;SDS011;8838;50.144;8.176;2024-01-15T09:03:48;34.03;;;13.70;;
17441;SDS011;8838;50.144;8.176;2024-01-15T09:06:15;30.77;;;12.80;;
17441;SDS011;8838;50.144;8.176;2024-01-15T09:08:42;27.33;;;12.57;;
17441;SDS011;8838;50.144;8.176;2024-01-15T09:11:09;27.70;;;12.30;;
17441;SDS011;8838;50.144;8.176;2024-01-15T09:13:37;27.13;;;13.03;;
17441;SDS011;8838;50.144;8.176;2024-01-15T09:16:06;24.70;;;12.40;;
17441;SDS011;8838;50.144;8.176;2024-01-15T09:18:34;27.10;;;11.80;;
17441;SDS011;8838;50.144;8.176;2024-01-15T09:21:01;26.40;;;12.43;;
17441;SDS011;8838;50.144;8.176;2024-01-15T09:23:30;24.97;;;11.77;;
17441;SDS011;8838;50.144;8.176;2024-01-15T09:25:57;23.90;;;10.97;;
17441;SDS011;8838;50.144;8.176;2024-01-15T09:28:24;21.73;;;10.20;;
17441;SDS011;8838;50.144;8.176;2024-01-15T09:30:51;22.37;;;10.47;;
17441;SDS011;8838;50.144;8.176;2024-01-15T09:33:20;19.30;;;10.77;;
17441;SDS011;8838;50.144;8.176;2024-01-15T09:35:47;22.30;;;10.20;;
17441;SDS011;8838;50.144;8.176;2024-01-15T09:38:15;21.83;;;10.53;;
17441;SDS011;8838;50.144;8.176;2024-01-15T09:40:43;20.93;;;9.27;;
17441;SDS011;8838;50.144;8.176;2024-01-15T09:43:12;17.17;;;9.27;;
17441;SDS011;8838;50.144;8.176;2024-01-15T09:45:41;18.33;;;9.33;;
17441;SDS011;8838;50.144;8.176;2024-01-15T09:48:08;20.60;;;9.37;;
17441;SDS011;8838;50.144;8.176;2024-01-15T09:50:39;19.57;;;9.37;;
17441;SDS011;8838;50.144;8.176;2024-01-15T09:53:06;17.67;;;9.07;;
17441;SDS011;8838;50.144;8.176;2024-01-15T09:55:33;17.53;;;8.77;;
17441;SDS011;8838;50.144;8.176;2024-01-15T09:58:00;19.73;;;8.97;;
17441;SDS011;8838;50.144;8.176;2024-01-15T10:00:30;19.30;;;9.30;;
17441;SDS011;8838;50.144;8.176;2024-01-15T10:02:57;18.33;;;9.70;;
17441;SDS011;8838;50.144;8.176;2024-01-15T10:05:25;17.27;;;8.73;;
17441;SDS011;8838;50.144;8.176;2024-01-15T10:07:54;17.27;;;8.40;;
17441;SDS011;8838;50.144;8.176;2024-01-15T10:10:23;17.40;;;8.17;;
17441;SDS011;8838;50.144;8.176;2024-01-15T10:12:51;18.37;;;8.30;;
17441;SDS011;8838;50.144;8.176;2024-01-15T10:15:22;15.23;;;8.13;;
17441;SDS011;8838;50.144;8.176;2024-01-15T10:17:51;17.03;;;8.37;;
17441;SDS011;8838;50.144;8.176;2024-01-15T10:20:18;15.53;;;8.23;;
17441;SDS011;8838;50.144;8.176;2024-01-15T10:22:47;19.30;;;9.23;;
17441;SDS011;8838;50.144;8.176;2024-01-15T10:25:15;17.47;;;8.77;;
17441;SDS011;8838;50.144;8.176;2024-01-15T10:27:52;16.23;;;8.43;;
17441;SDS011;8838;50.144;8.176;2024-01-15T10:30:26;19.27;;;9.10;;
17441;SDS011;8838;50.144;8.176;2024-01-15T10:32:57;15.53;;;8.40;;
17441;SDS011;8838;50.144;8.176;2024-01-15T10:35:26;18.20;;;8.80;;
17441;SDS011;8838;50.144;8.176;2024-01-15T10:37:53;17.10;;;8.53;;
17441;SDS011;8838;50.144;8.176;2024-01-15T10:40:22;16.07;;;8.70;;
17441;SDS011;8838;50.144;8.176;2024-01-15T10:42:50;18.03;;;9.47;;
17441;SDS011;8838;50.144;8.176;2024-01-15T10:45:17;16.90;;;9.23;;
17441;SDS011;8838;50.144;8.176;2024-01-15T10:47:44;25.73;;;12.30;;
17441;SDS011;8838;50.144;8.176;2024-01-15T10:50:11;17.87;;;8.87;;
17441;SDS011;8838;50.144;8.176;2024-01-15T10:52:39;15.83;;;8.87;;
17441;SDS011;8838;50.144;8.176;2024-01-15T10:55:07;16.00;;;8.50;;
17441;SDS011;8838;50.144;8.176;2024-01-15T10:57:37;17.10;;;8.70;;
17441;SDS011;8838;50.144;8.176;2024-01-15T11:00:05;17.47;;;8.87;;
17441;SDS011;8838;50.144;8.176;2024-01-15T11:02:34;18.47;;;10.07;;
17441;SDS011;8838;50.144;8.176;2024-01-15T11:05:03;16.27;;;9.13;;
17441;SDS011;8838;50.144;8.176;2024-01-15T11:07:30;16.03;;;8.90;;
17441;SDS011;8838;50.144;8.176;2024-01-15T11:09:57;15.67;;;9.30;;
17441;SDS011;8838;50.144;8.176;2024-01-15T11:12:25;14.83;;;8.27;;
17441;SDS011;8838;50.144;8.176;2024-01-15T11:15:00;17.03;;;8.60;;
17441;SDS011;8838;50.144;8.176;2024-01-15T11:17:30;17.03;;;8.70;;
17441;SDS011;8838;50.144;8.176;2024-01-15T11:20:26;16.60;;;8.83;;
17441;SDS011;8838;50.144;8.176;2024-01-15T11:22:53;16.17;;;8.90;;
17441;SDS011;8838;50.144;8.176;2024-01-15T11:25:22;15.73;;;8.77;;
17441;SDS011;8838;50.144;8.176;2024-01-15T11:27:50;17.23;;;8.80;;
17441;SDS011;8838;50.144;8.176;2024-01-15T11:30:24;18.43;;;9.30;;
17441;SDS011;8838;50.144;8.176;2024-01-15T11:32:51;16.03;;;8.63;;
17441;SDS011;8838;50.144;8.176;2024-01-15T11:35:18;15.80;;;8.27;;
17441;SDS011;8838;50.144;8.176;2024-01-15T11:37:58;16.90;;;9.00;;
17441;SDS011;8838;50.144;8.176;2024-01-15T11:40:36;18.60;;;8.90;;
17441;SDS011;8838;50.144;8.176;2024-01-15T11:43:07;15.13;;;8.40;;
17441;SDS011;8838;50.144;8.176;2024-01-15T11:45:36;16.97;;;8.00;;
17441;SDS011;8838;50.144;8.176;2024-01-15T11:48:09;15.03;;;7.70;;
17441;SDS011;8838;50.144;8.176;2024-01-15T11:50:40;14.37;;;7.30;;
17441;SDS011;8838;50.144;8.176;2024-01-15T11:53:21;15.13;;;7.60;;
17441;SDS011;8838;50.144;8.176;2024-01-15T11:55:55;14.20;;;7.80;;
17441;SDS011;8838;50.144;8.176;2024-01-15T11:58:25;14.83;;;7.63;;
17441;SDS011;8838;50.144;8.176;2024-01-15T12:00:53;15.17;;;8.07;;
17441;SDS011;8838;50.144;8.176;2024-01-15T12:03:22;17.10;;;7.60;;
17441;SDS011;8838;50.144;8.176;2024-01-15T12:05:49;15.47;;;7.90;;
17441;SDS011;8838;50.144;8.176;2024-01-15T12:08:20;16.57;;;8.40;;
17441;SDS011;8838;50.144;8.176;2024-01-15T12:10:48;16.23;;;8.30;;
17441;SDS011;8838;50.144;8.176;2024-01-15T12:13:16;16.10;;;8.20;;
17441;SDS011;8838;50.144;8.176;2024-01-15T12:15:44;15.27;;;8.30;;
17441;SDS011;8838;50.144;8.176;2024-01-15T12:18:13;15.60;;;8.23;;
17441;SDS011;8838;50.144;8.176;2024-01-15T12:20:42;14.97;;;8.13;;
17441;SDS011;8838;50.144;8.176;2024-01-15T12:23:12;16.60;;;7.97;;
17441;SDS011;8838;50.144;8.176;2024-01-15T12:25:40;15.67;;;8.03;;
17441;SDS011;8838;50.144;8.176;2024-01-15T12:28:07;16.83;;;7.77;;
17441;SDS011;8838;50.144;8.176;2024-01-15T12:30:34;17.23;;;8.20;;
17441;SDS011;8838;50.144;8.176;2024-01-15T12:33:03;17.20;;;7.90;;
17441;SDS011;8838;50.144;8.176;2024-01-15T12:35:34;14.27;;;8.03;;
17441;SDS011;8838;50.144;8.176;2024-01-15T12:38:03;13.33;;;7.07;;
17441;SDS011;8838;50.144;8.176;2024-01-15T12:40:31;16.53;;;8.23;;
17441;SDS011;8838;50.144;8.176;2024-01-15T12:42:59;14.53;;;7.70;;
17441;SDS011;8838;50.144;8.176;2024-01-15T12:45:26;14.80;;;8.10;;
17441;SDS011;8838;50.144;8.176;2024-01-15T12:47:53;16.10;;;7.83;;
17441;SDS011;8838;50.144;8.176;2024-01-15T12:50:23;17.53;;;8.07;;
17441;SDS011;8838;50.144;8.176;2024-01-15T12:52:52;16.00;;;7.97;;
17441;SDS011;8838;50.144;8.176;2024-01-15T12:55:19;15.13;;;7.70;;
17441;SDS011;8838;50.144;8.176;2024-01-15T12:57:46;15.33;;;8.67;;
17441;SDS011;8838;50.144;8.176;2024-01-15T13:00:15;14.93;;;8.07;;
17441;SDS011;8838;50.144;8.176;2024-01-15T13:02:42;15.57;;;8.03;;
17441;SDS011;8838;50.144;8.176;2024-01-15T13:05:11;16.03;;;7.73;;
17441;SDS011;8838;50.144;8.176;2024-01-15T13:07:39;18.87;;;8.20;;
17441;SDS011;8838;50.144;8.176;2024-01-15T13:10:11;15.90;;;7.37;;
17441;SDS011;8838;50.144;8.176;2024-01-15T13:12:39;15.63;;;7.00;;
17441;SDS011;8838;50.144;8.176;2024-01-15T13:15:07;13.10;;;6.97;;
17441;SDS011;8838;50.144;8.176;2024-01-15T13:17:37;15.07;;;7.57;;
17441;SDS011;8838;50.144;8.176;2024-01-15T13:20:05;18.03;;;8.43;;
17441;SDS011;8838;50.144;8.176;2024-01-15T13:22:36;15.23;;;8.03;;
17441;SDS011;8838;50.144;8.176;2024-01-15T13:25:05;18.37;;;8.23;;
17441;SDS011;8838;50.144;8.176;2024-01-15T13:27:34;16.13;;;7.80;;
17441;SDS011;8838;50.144;8.176;2024-01-15T13:30:01;18.33;;;8.70;;
17441;SDS011;8838;50.144;8.176;2024-01-15T13:32:28;17.27;;;8.47;;
17441;SDS011;8838;50.144;8.176;2024-01-15T13:34:55;18.63;;;8.60;;
17441;SDS011;8838;50.144;8.176;2024-01-15T13:37:23;15.70;;;8.20;;
17441;SDS011;8838;50.144;8.176;2024-01-15T13:39:50;16.17;;;8.10;;
17441;SDS011;8838;50.144;8.176;2024-01-15T13:42:21;15.23;;;7.87;;
17441;SDS011;8838;50.144;8.176;2024-01-15T13:44:50;18.80;;;8.57;;
17441;SDS011;8838;50.144;8.176;2024-01-15T13:47:17;15.17;;;7.77;;
17441;SDS011;8838;50.144;8.176;2024-01-15T13:49:43;15.63;;;7.50;;
17441;SDS011;8838;50.144;8.176;2024-01-15T13:52:10;14.03;;;7.37;;
17441;SDS011;8838;50.144;8.176;2024-01-15T13:54:37;14.10;;;7.63;;
17441;SDS011;8838;50.144;8.176;2024-01-15T13:57:04;14.03;;;7.27;;
17441;SDS011;8838;50.144;8.176;2024-01-15T13:59:31;15.73;;;7.33;;
17441;SDS011;8838;50.144;8.176;2024-01-15T14:02:00;15.10;;;6.97;;
17441;SDS011;8838;50.144;8.176;2024-01-15T14:04:26;12.80;;;7.00;;
17441;SDS011;8838;50.144;8.176;2024-01-15T14:06:53;13.60;;;7.13;;
17441;SDS011;8838;50.144;8.176;2024-01-15T14:09:21;13.83;;;6.90;;
17441;SDS011;8838;50.144;8.176;2024-01-15T14:11:48;12.93;;;7.57;;
17441;SDS011;8838;50.144;8.176;2024-01-15T14:14:15;16.23;;;7.53;;
17441;SDS011;8838;50.144;8.176;2024-01-15T14:16:42;15.33;;;7.60;;
17441;SDS011;8838;50.144;8.176;2024-01-15T14:19:10;16.73;;;7.30;;
17441;SDS011;8838;50.144;8.176;2024-01-15T14:21:37;14.53;;;7.07;;
17441;SDS011;8838;50.144;8.176;2024-01-15T14:24:05;15.87;;;7.83;;
17441;SDS011;8838;50.144;8.176;2024-01-15T14:26:31;15.67;;;7.03;;
17441;SDS011;8838;50.144;8.176;2024-01-15T14:28:58;14.40;;;7.67;;
17441;SDS011;8838;50.144;8.176;2024-01-15T14:31:25;15.63;;;7.83;;
17441;SDS011;8838;50.144;8.176;2024-01-15T14:33:53;27.17;;;15.53;;
17441;SDS011;8838;50.144;8.176;2024-01-15T14:36:22;14.90;;;7.63;;
17441;SDS011;8838;50.144;8.176;2024-01-15T14:38:48;14.00;;;7.20;;
17441;SDS011;8838;50.144;8.176;2024-01-15T14:41:15;11.67;;;6.33;;